This is the latest recevied weather packets stored in our database for station/object KV9E. If no packets are shown the sender has not sent any weather packets the latest 1 day(s).
| Time | Temp. | Humidity | Pressure | Rain* | Wind** | Luminosity | Snow |
|---|---|---|---|---|---|---|---|
| 1778082813 | 14.44° C | 99% | 1011.7 hPa | 0 mm | - | 43 W/m² | - |
| 1778081383 | 15.56° C | 99% | 1011.6 hPa | 0 mm | - | 93 W/m² | - |
| 1778080475 | 15.56° C | 99% | 1011.4 hPa | 0 mm | - | 104 W/m² | - |
| 1778079566 | 15.56° C | 99% | 1010.8 hPa | 0 mm | - | 154 W/m² | - |
| 1778079261 | 15.56° C | 99% | 1010.8 hPa | 0 mm | - | 126 W/m² | - |
| 1778078959 | 15.56° C | 99% | 1010.2 hPa | 0 mm | - | 195 W/m² | - |
| 1778078656 | 15° C | 99% | 1010.3 hPa | 0 mm | - | 185 W/m² | - |
| 1778078051 | 15.56° C | 99% | 1010.3 hPa | 0 mm | - | 93 W/m² | - |
| 1778072599 | 15° C | 99% | 1010.7 hPa | 0 mm | - | 25 W/m² | - |
| 1778072297 | 15° C | 99% | 1010.6 hPa | 0 mm | - | 31 W/m² | - |
| 1778071995 | 15° C | 99% | 1010.4 hPa | 0 mm | - | 32 W/m² | - |
| 1778071390 | 15.56° C | 99% | 1010.6 hPa | 0 mm | - | 19 W/m² | - |
| 1778070786 | 15.56° C | 99% | 1010.5 hPa | 0 mm | - | 21 W/m² | - |
| 1778070179 | 15.56° C | 99% | 1010.1 hPa | 0 mm | - | 15 W/m² | - |
| 1778069271 | 15° C | 99% | 1009.8 hPa | 0 mm | - | 15 W/m² | - |
| 1778068062 | 15° C | 99% | 1010 hPa | 0 mm | - | 11 W/m² | - |
| 1778067760 | 15° C | 99% | 1009.6 hPa | 1.27 mm | - | 5 W/m² | - |
| 1778067458 | 15° C | 99% | 1009.8 hPa | 8.89 mm | - | 4 W/m² | - |
| 1778066851 | 15° C | 99% | 1010 hPa | 13.72 mm | - | 1 W/m² | - |
| 1778066549 | 15° C | 99% | 1010 hPa | 7.11 mm | - | 1 W/m² | - |
| 1778065641 | 15° C | 99% | 1009.9 hPa | 6.1 mm | - | 1 W/m² | - |
| 1778065339 | 15° C | 99% | 1009.9 hPa | 6.1 mm | - | 0 W/m² | - |
| 1778065035 | 15° C | 99% | 1009.6 hPa | 0 mm | - | 0 W/m² | - |
| 1778063521 | 15° C | 99% | 1009 hPa | 1.78 mm | - | 0 W/m² | - |
| 1778060798 | 16.67° C | 89% | 1008.6 hPa | 0 mm | - | 0 W/m² | - |
* Rain latest hour (hover to see other rain measurements)
** Current wind speed in m/s (hover to see current wind gust speed)